sensor_id;sensor_type;location;lat;lon;timestamp;P1;durP1;ratioP1;P2;durP2;ratioP2
46597;SDS011;32318;48.858;8.252;2022-11-13T00:01:21;25.33;;;12.85;;
46597;SDS011;32318;48.858;8.252;2022-11-13T00:09:23;23.20;;;11.85;;
46597;SDS011;32318;48.858;8.252;2022-11-13T00:17:23;25.33;;;10.63;;
46597;SDS011;32318;48.858;8.252;2022-11-13T00:25:24;22.58;;;10.38;;
46597;SDS011;32318;48.858;8.252;2022-11-13T00:33:24;21.45;;;9.82;;
46597;SDS011;32318;48.858;8.252;2022-11-13T00:41:24;26.92;;;10.15;;
46597;SDS011;32318;48.858;8.252;2022-11-13T00:49:24;17.42;;;9.98;;
46597;SDS011;32318;48.858;8.252;2022-11-13T00:57:25;20.17;;;9.27;;
46597;SDS011;32318;48.858;8.252;2022-11-13T01:05:26;17.85;;;8.82;;
46597;SDS011;32318;48.858;8.252;2022-11-13T01:13:26;24.08;;;9.55;;
46597;SDS011;32318;48.858;8.252;2022-11-13T01:21:27;18.13;;;9.43;;
46597;SDS011;32318;48.858;8.252;2022-11-13T01:29:27;21.10;;;8.93;;
46597;SDS011;32318;48.858;8.252;2022-11-13T01:37:27;20.17;;;9.75;;
46597;SDS011;32318;48.858;8.252;2022-11-13T01:53:56;20.67;;;10.27;;
46597;SDS011;32318;48.858;8.252;2022-11-13T02:01:57;21.83;;;9.32;;
46597;SDS011;32318;48.858;8.252;2022-11-13T02:09:58;21.77;;;9.93;;
46597;SDS011;32318;48.858;8.252;2022-11-13T02:18:00;40.50;;;11.63;;
46597;SDS011;32318;48.858;8.252;2022-11-13T02:26:01;25.67;;;12.05;;
46597;SDS011;32318;48.858;8.252;2022-11-13T02:34:03;37.58;;;12.95;;
46597;SDS011;32318;48.858;8.252;2022-11-13T02:42:03;24.02;;;12.30;;
46597;SDS011;32318;48.858;8.252;2022-11-13T02:50:04;30.55;;;12.48;;
46597;SDS011;32318;48.858;8.252;2022-11-13T02:58:06;44.40;;;13.75;;
46597;SDS011;32318;48.858;8.252;2022-11-13T03:06:06;33.13;;;12.45;;
46597;SDS011;32318;48.858;8.252;2022-11-13T03:14:06;37.72;;;12.23;;
46597;SDS011;32318;48.858;8.252;2022-11-13T03:22:07;41.80;;;11.95;;
46597;SDS011;32318;48.858;8.252;2022-11-13T03:30:07;32.65;;;13.25;;
46597;SDS011;32318;48.858;8.252;2022-11-13T03:38:08;28.40;;;11.07;;
46597;SDS011;32318;48.858;8.252;2022-11-13T03:46:08;26.63;;;12.15;;
46597;SDS011;32318;48.858;8.252;2022-11-13T03:54:09;24.30;;;11.63;;
46597;SDS011;32318;48.858;8.252;2022-11-13T04:02:09;40.85;;;10.38;;
46597;SDS011;32318;48.858;8.252;2022-11-13T04:10:09;19.83;;;11.45;;
46597;SDS011;32318;48.858;8.252;2022-11-13T04:18:10;28.08;;;11.63;;
46597;SDS011;32318;48.858;8.252;2022-11-13T04:26:10;36.08;;;13.00;;
46597;SDS011;32318;48.858;8.252;2022-11-13T04:34:10;29.98;;;11.25;;
46597;SDS011;32318;48.858;8.252;2022-11-13T04:42:11;24.08;;;11.95;;
46597;SDS011;32318;48.858;8.252;2022-11-13T04:50:30;46.08;;;12.38;;
46597;SDS011;32318;48.858;8.252;2022-11-13T04:58:30;22.02;;;10.82;;
46597;SDS011;32318;48.858;8.252;2022-11-13T05:06:30;36.33;;;12.00;;
46597;SDS011;32318;48.858;8.252;2022-11-13T05:14:31;38.17;;;12.20;;
46597;SDS011;32318;48.858;8.252;2022-11-13T05:22:31;26.80;;;10.63;;
46597;SDS011;32318;48.858;8.252;2022-11-13T05:30:31;19.58;;;8.73;;
46597;SDS011;32318;48.858;8.252;2022-11-13T05:38:31;28.20;;;11.35;;
46597;SDS011;32318;48.858;8.252;2022-11-13T05:46:32;26.23;;;12.23;;
46597;SDS011;32318;48.858;8.252;2022-11-13T05:54:32;26.02;;;12.40;;
46597;SDS011;32318;48.858;8.252;2022-11-13T06:02:33;32.30;;;12.77;;
46597;SDS011;32318;48.858;8.252;2022-11-13T06:10:34;16.75;;;8.02;;
46597;SDS011;32318;48.858;8.252;2022-11-13T06:18:34;21.27;;;9.25;;
46597;SDS011;32318;48.858;8.252;2022-11-13T06:26:36;21.23;;;10.23;;
46597;SDS011;32318;48.858;8.252;2022-11-13T06:34:37;19.25;;;7.63;;
46597;SDS011;32318;48.858;8.252;2022-11-13T06:42:38;19.83;;;10.45;;
46597;SDS011;32318;48.858;8.252;2022-11-13T06:50:38;18.83;;;10.15;;
46597;SDS011;32318;48.858;8.252;2022-11-13T06:58:39;28.73;;;11.20;;
46597;SDS011;32318;48.858;8.252;2022-11-13T07:06:39;25.33;;;13.05;;
46597;SDS011;32318;48.858;8.252;2022-11-13T07:14:40;21.95;;;12.02;;
46597;SDS011;32318;48.858;8.252;2022-11-13T07:22:43;40.75;;;18.17;;
46597;SDS011;32318;48.858;8.252;2022-11-13T07:30:43;31.88;;;12.30;;
46597;SDS011;32318;48.858;8.252;2022-11-13T07:38:44;22.90;;;11.30;;
46597;SDS011;32318;48.858;8.252;2022-11-13T07:46:44;57.10;;;23.00;;
46597;SDS011;32318;48.858;8.252;2022-11-13T07:54:44;22.98;;;12.45;;
46597;SDS011;32318;48.858;8.252;2022-11-13T08:02:44;18.77;;;9.27;;
46597;SDS011;32318;48.858;8.252;2022-11-13T08:10:46;26.50;;;12.38;;
46597;SDS011;32318;48.858;8.252;2022-11-13T08:18:47;26.23;;;12.50;;
46597;SDS011;32318;48.858;8.252;2022-11-13T08:26:47;32.22;;;19.48;;
46597;SDS011;32318;48.858;8.252;2022-11-13T08:34:47;24.35;;;13.07;;
46597;SDS011;32318;48.858;8.252;2022-11-13T08:42:47;24.02;;;11.05;;
46597;SDS011;32318;48.858;8.252;2022-11-13T08:50:52;31.02;;;16.88;;
46597;SDS011;32318;48.858;8.252;2022-11-13T08:58:54;24.83;;;12.93;;
46597;SDS011;32318;48.858;8.252;2022-11-13T09:06:54;24.33;;;12.65;;
46597;SDS011;32318;48.858;8.252;2022-11-13T09:14:54;89.82;;;37.25;;
46597;SDS011;32318;48.858;8.252;2022-11-13T09:22:55;16.52;;;8.68;;
46597;SDS011;32318;48.858;8.252;2022-11-13T09:30:57;14.07;;;6.70;;
46597;SDS011;32318;48.858;8.252;2022-11-13T09:38:57;16.35;;;9.27;;
46597;SDS011;32318;48.858;8.252;2022-11-13T09:47:05;19.30;;;10.30;;
46597;SDS011;32318;48.858;8.252;2022-11-13T09:55:17;19.08;;;10.52;;
46597;SDS011;32318;48.858;8.252;2022-11-13T10:20:21;18.25;;;8.32;;
46597;SDS011;32318;48.858;8.252;2022-11-13T10:28:25;16.55;;;7.88;;
46597;SDS011;32318;48.858;8.252;2022-11-13T10:36:31;14.02;;;8.18;;
46597;SDS011;32318;48.858;8.252;2022-11-13T10:44:38;13.15;;;7.35;;
46597;SDS011;32318;48.858;8.252;2022-11-13T10:52:43;15.80;;;9.60;;
46597;SDS011;32318;48.858;8.252;2022-11-13T11:00:47;11.60;;;5.90;;
46597;SDS011;32318;48.858;8.252;2022-11-13T11:08:48;14.50;;;6.90;;
46597;SDS011;32318;48.858;8.252;2022-11-13T11:16:50;14.82;;;7.68;;
46597;SDS011;32318;48.858;8.252;2022-11-13T11:33:22;16.08;;;7.32;;
46597;SDS011;32318;48.858;8.252;2022-11-13T11:41:31;12.55;;;6.90;;
46597;SDS011;32318;48.858;8.252;2022-11-13T11:49:37;12.57;;;6.47;;
46597;SDS011;32318;48.858;8.252;2022-11-13T12:14:31;16.42;;;8.95;;
46597;SDS011;32318;48.858;8.252;2022-11-13T12:22:37;13.23;;;6.50;;
46597;SDS011;32318;48.858;8.252;2022-11-13T12:39:12;13.07;;;6.25;;
46597;SDS011;32318;48.858;8.252;2022-11-13T12:47:16;7.57;;;4.07;;
46597;SDS011;32318;48.858;8.252;2022-11-13T12:55:27;10.57;;;6.37;;
46597;SDS011;32318;48.858;8.252;2022-11-13T13:28:20;11.32;;;5.18;;
46597;SDS011;32318;48.858;8.252;2022-11-13T13:44:41;8.63;;;4.70;;
46597;SDS011;32318;48.858;8.252;2022-11-13T13:52:52;11.63;;;5.80;;
46597;SDS011;32318;48.858;8.252;2022-11-13T14:00:58;10.57;;;5.82;;
46597;SDS011;32318;48.858;8.252;2022-11-13T14:09:06;11.35;;;5.90;;
46597;SDS011;32318;48.858;8.252;2022-11-13T14:17:08;12.43;;;6.32;;
46597;SDS011;32318;48.858;8.252;2022-11-13T14:25:28;12.23;;;6.40;;
46597;SDS011;32318;48.858;8.252;2022-11-13T14:33:33;11.57;;;5.82;;
46597;SDS011;32318;48.858;8.252;2022-11-13T14:41:37;13.82;;;7.22;;
46597;SDS011;32318;48.858;8.252;2022-11-13T14:49:39;11.07;;;5.78;;
46597;SDS011;32318;48.858;8.252;2022-11-13T14:57:46;14.50;;;6.30;;
46597;SDS011;32318;48.858;8.252;2022-11-13T15:05:47;23.48;;;11.15;;
46597;SDS011;32318;48.858;8.252;2022-11-13T15:13:48;20.33;;;11.20;;
46597;SDS011;32318;48.858;8.252;2022-11-13T15:21:48;22.00;;;11.30;;
46597;SDS011;32318;48.858;8.252;2022-11-13T15:29:48;22.92;;;12.52;;
46597;SDS011;32318;48.858;8.252;2022-11-13T15:37:49;22.33;;;12.52;;
46597;SDS011;32318;48.858;8.252;2022-11-13T15:45:50;27.65;;;14.57;;
46597;SDS011;32318;48.858;8.252;2022-11-13T15:53:51;29.95;;;14.50;;
46597;SDS011;32318;48.858;8.252;2022-11-13T16:01:55;26.50;;;14.90;;
46597;SDS011;32318;48.858;8.252;2022-11-13T16:09:56;31.48;;;16.10;;
46597;SDS011;32318;48.858;8.252;2022-11-13T16:17:56;32.05;;;16.33;;
46597;SDS011;32318;48.858;8.252;2022-11-13T16:25:57;31.48;;;16.02;;
46597;SDS011;32318;48.858;8.252;2022-11-13T16:33:58;36.05;;;16.35;;
46597;SDS011;32318;48.858;8.252;2022-11-13T16:41:58;42.78;;;19.20;;
46597;SDS011;32318;48.858;8.252;2022-11-13T16:49:59;42.72;;;21.67;;
46597;SDS011;32318;48.858;8.252;2022-11-13T16:57:59;47.35;;;19.77;;
46597;SDS011;32318;48.858;8.252;2022-11-13T17:06:00;57.80;;;22.00;;
46597;SDS011;32318;48.858;8.252;2022-11-13T17:14:00;78.47;;;33.42;;
46597;SDS011;32318;48.858;8.252;2022-11-13T17:22:01;39.08;;;18.33;;
46597;SDS011;32318;48.858;8.252;2022-11-13T17:30:02;33.80;;;16.65;;
46597;SDS011;32318;48.858;8.252;2022-11-13T17:38:03;33.75;;;16.20;;
46597;SDS011;32318;48.858;8.252;2022-11-13T17:46:03;35.72;;;17.48;;
46597;SDS011;32318;48.858;8.252;2022-11-13T17:54:05;56.10;;;23.23;;
46597;SDS011;32318;48.858;8.252;2022-11-13T18:02:05;51.33;;;23.52;;
46597;SDS011;32318;48.858;8.252;2022-11-13T18:10:07;41.47;;;19.88;;
46597;SDS011;32318;48.858;8.252;2022-11-13T18:18:09;39.50;;;17.80;;
46597;SDS011;32318;48.858;8.252;2022-11-13T18:26:19;36.72;;;16.88;;
46597;SDS011;32318;48.858;8.252;2022-11-13T18:34:19;39.22;;;16.20;;
46597;SDS011;32318;48.858;8.252;2022-11-13T18:42:19;38.90;;;17.77;;
46597;SDS011;32318;48.858;8.252;2022-11-13T18:50:20;45.47;;;18.75;;
46597;SDS011;32318;48.858;8.252;2022-11-13T18:58:21;45.25;;;17.25;;
46597;SDS011;32318;48.858;8.252;2022-11-13T19:06:22;39.70;;;17.48;;
46597;SDS011;32318;48.858;8.252;2022-11-13T19:14:22;43.80;;;17.38;;
46597;SDS011;32318;48.858;8.252;2022-11-13T19:22:23;36.60;;;15.27;;
46597;SDS011;32318;48.858;8.252;2022-11-13T19:30:23;30.23;;;14.90;;
46597;SDS011;32318;48.858;8.252;2022-11-13T19:38:23;30.25;;;14.25;;
46597;SDS011;32318;48.858;8.252;2022-11-13T19:46:26;31.63;;;14.75;;
46597;SDS011;32318;48.858;8.252;2022-11-13T19:54:27;45.92;;;18.17;;
46597;SDS011;32318;48.858;8.252;2022-11-13T20:02:28;34.17;;;14.52;;
46597;SDS011;32318;48.858;8.252;2022-11-13T20:10:29;41.03;;;15.70;;
46597;SDS011;32318;48.858;8.252;2022-11-13T20:18:30;30.30;;;13.23;;
46597;SDS011;32318;48.858;8.252;2022-11-13T20:26:31;33.67;;;14.38;;
46597;SDS011;32318;48.858;8.252;2022-11-13T20:34:32;40.05;;;15.65;;
46597;SDS011;32318;48.858;8.252;2022-11-13T20:42:32;48.45;;;17.27;;
46597;SDS011;32318;48.858;8.252;2022-11-13T20:50:35;42.83;;;18.08;;
46597;SDS011;32318;48.858;8.252;2022-11-13T20:58:36;39.53;;;17.10;;
46597;SDS011;32318;48.858;8.252;2022-11-13T21:06:37;45.17;;;18.00;;
46597;SDS011;32318;48.858;8.252;2022-11-13T21:14:37;32.47;;;14.95;;
46597;SDS011;32318;48.858;8.252;2022-11-13T21:22:37;37.22;;;14.18;;
46597;SDS011;32318;48.858;8.252;2022-11-13T21:30:43;30.13;;;13.52;;
46597;SDS011;32318;48.858;8.252;2022-11-13T21:38:44;28.00;;;12.75;;
46597;SDS011;32318;48.858;8.252;2022-11-13T21:46:44;30.02;;;12.75;;
46597;SDS011;32318;48.858;8.252;2022-11-13T21:54:45;32.67;;;12.30;;
46597;SDS011;32318;48.858;8.252;2022-11-13T22:02:45;26.30;;;12.05;;
46597;SDS011;32318;48.858;8.252;2022-11-13T22:10:45;25.75;;;11.50;;
46597;SDS011;32318;48.858;8.252;2022-11-13T22:27:16;25.55;;;11.10;;
46597;SDS011;32318;48.858;8.252;2022-11-13T22:35:26;26.00;;;12.15;;
46597;SDS011;32318;48.858;8.252;2022-11-13T22:43:45;27.88;;;13.38;;
46597;SDS011;32318;48.858;8.252;2022-11-13T22:51:49;28.08;;;11.85;;
46597;SDS011;32318;48.858;8.252;2022-11-13T23:07:53;27.30;;;11.57;;
46597;SDS011;32318;48.858;8.252;2022-11-13T23:15:53;26.27;;;12.02;;
46597;SDS011;32318;48.858;8.252;2022-11-13T23:23:54;25.63;;;11.30;;
46597;SDS011;32318;48.858;8.252;2022-11-13T23:31:55;25.30;;;10.82;;
46597;SDS011;32318;48.858;8.252;2022-11-13T23:39:55;16.90;;;8.63;;
46597;SDS011;32318;48.858;8.252;2022-11-13T23:47:55;21.55;;;9.68;;
46597;SDS011;32318;48.858;8.252;2022-11-13T23:55:56;22.33;;;9.47;;
